createdAt,value
2022-10-03T00:01:48.050Z,82.30
2022-10-03T00:04:53.372Z,83.00
2022-10-03T00:07:51.034Z,82.60
2022-10-03T00:10:53.670Z,82.50
2022-10-03T00:13:49.529Z,82.90
2022-10-03T00:16:36.549Z,82.70
2022-10-03T00:19:30.103Z,82.40
2022-10-03T00:22:37.136Z,82.90
2022-10-03T00:25:46.744Z,83.10
2022-10-03T00:28:26.446Z,82.60
2022-10-03T00:31:13.425Z,82.50
2022-10-03T00:33:46.197Z,82.40
2022-10-03T00:36:38.210Z,82.80
2022-10-03T00:39:40.823Z,82.50
2022-10-03T00:42:44.794Z,82.90
2022-10-03T00:45:34.231Z,83.10
2022-10-03T00:48:23.753Z,83.60
2022-10-03T00:51:21.034Z,82.90
2022-10-03T00:54:04.793Z,83.10
2022-10-03T00:57:06.695Z,82.80
2022-10-03T01:00:09.027Z,82.50
2022-10-03T01:03:22.309Z,82.80
2022-10-03T01:06:30.854Z,82.90
2022-10-03T01:09:22.777Z,82.70
2022-10-03T01:12:02.786Z,82.70
2022-10-03T01:15:09.583Z,82.80
2022-10-03T01:18:03.189Z,83.40
2022-10-03T01:21:12.074Z,82.40
2022-10-03T01:24:20.416Z,83.00
2022-10-03T01:27:02.092Z,82.80
2022-10-03T01:30:14.082Z,83.00
2022-10-03T01:32:55.524Z,83.30
2022-10-03T01:36:12.774Z,83.00
2022-10-03T01:38:45.146Z,83.30
2022-10-03T01:41:34.476Z,82.50
2022-10-03T01:44:31.210Z,83.10
2022-10-03T01:48:02.232Z,83.50
2022-10-03T01:50:46.610Z,83.40
2022-10-03T01:53:38.528Z,83.00
2022-10-03T01:56:52.466Z,83.10
2022-10-03T01:59:37.337Z,82.90
2022-10-03T02:02:36.782Z,83.00
2022-10-03T02:05:17.241Z,83.20
2022-10-03T02:08:03.407Z,83.10
2022-10-03T02:10:59.426Z,83.50
2022-10-03T02:13:41.655Z,83.40
2022-10-03T02:16:58.302Z,83.10
2022-10-03T02:19:48.822Z,83.20
2022-10-03T02:22:58.643Z,83.20
2022-10-03T02:25:35.504Z,83.10
2022-10-03T02:28:31.014Z,82.80
2022-10-03T02:31:46.944Z,82.50
2022-10-03T02:34:42.521Z,83.20
2022-10-03T02:37:49.435Z,82.70
2022-10-03T02:40:45.794Z,82.80
2022-10-03T02:44:10.766Z,82.60
2022-10-03T02:47:11.560Z,83.00
2022-10-03T02:50:27.903Z,82.30
2022-10-03T02:53:22.860Z,82.50
2022-10-03T02:56:30.155Z,82.40
2022-10-03T02:59:45.864Z,82.60
2022-10-03T03:02:40.230Z,82.20
2022-10-03T03:05:36.863Z,82.20
2022-10-03T03:08:28.438Z,81.90
2022-10-03T03:11:49.340Z,82.00
2022-10-03T03:14:47.102Z,82.10
2022-10-03T03:17:36.640Z,82.00
2022-10-03T03:20:41.156Z,81.80
2022-10-03T03:23:39.072Z,82.00
2022-10-03T03:26:28.134Z,81.70
2022-10-03T03:29:26.392Z,81.90
2022-10-03T03:32:29.544Z,81.90
2022-10-03T03:35:29.516Z,81.90
2022-10-03T03:38:33.782Z,82.10
2022-10-03T03:41:30.398Z,81.90
2022-10-03T03:44:25.442Z,81.90
2022-10-03T03:47:43.301Z,81.50
2022-10-03T03:50:38.313Z,81.80
2022-10-03T03:53:27.223Z,81.80
2022-10-03T03:56:39.744Z,81.80
2022-10-03T03:59:37.295Z,82.00
2022-10-03T04:02:34.092Z,81.80
2022-10-03T04:05:48.519Z,81.20
2022-10-03T04:09:00.853Z,82.10
2022-10-03T04:11:53.506Z,82.20
2022-10-03T04:14:56.851Z,81.90
2022-10-03T04:18:15.668Z,82.30
2022-10-03T04:21:24.052Z,82.10
2022-10-03T04:24:38.543Z,82.20
2022-10-03T04:27:38.071Z,82.30
2022-10-03T04:30:20.759Z,82.50
2022-10-03T04:33:18.772Z,82.30
2022-10-03T04:36:22.364Z,82.30
2022-10-03T04:39:29.529Z,82.50
2022-10-03T04:42:04.101Z,82.50
2022-10-03T04:44:43.482Z,82.00
2022-10-03T04:47:40.597Z,82.10
2022-10-03T04:50:22.812Z,82.50
2022-10-03T04:53:07.026Z,82.30
2022-10-03T04:55:56.839Z,82.20
2022-10-03T04:58:46.824Z,82.40
2022-10-03T05:01:26.450Z,82.20
2022-10-03T05:04:25.123Z,82.10
2022-10-03T05:07:32.934Z,82.20
2022-10-03T05:10:30.889Z,82.40
2022-10-03T05:13:12.786Z,82.10
2022-10-03T05:16:11.175Z,82.10
2022-10-03T05:19:01.961Z,82.20
2022-10-03T05:21:56.498Z,82.20
2022-10-03T05:24:53.408Z,82.20
2022-10-03T05:27:45.532Z,82.40
2022-10-03T05:30:36.345Z,81.90
2022-10-03T05:33:15.362Z,82.00
2022-10-03T05:36:14.027Z,81.90
2022-10-03T05:39:31.246Z,81.90
2022-10-03T05:42:42.872Z,82.20
2022-10-03T05:45:31.825Z,82.40
2022-10-03T05:48:33.126Z,82.00
2022-10-03T05:51:37.149Z,82.10
2022-10-03T05:54:28.629Z,82.20
2022-10-03T05:57:50.192Z,82.00
2022-10-03T06:00:58.135Z,82.10
2022-10-03T06:04:05.982Z,82.00
2022-10-03T06:06:51.513Z,82.00
2022-10-03T06:09:27.103Z,81.70
2022-10-03T06:12:10.092Z,81.80
2022-10-03T06:15:22.344Z,81.80
2022-10-03T06:18:21.429Z,81.80
2022-10-03T06:21:41.921Z,81.80
2022-10-03T06:24:41.857Z,81.90
2022-10-03T06:27:56.105Z,81.60
2022-10-03T06:31:02.821Z,81.50
2022-10-03T06:34:20.057Z,81.50
2022-10-03T06:37:37.554Z,81.40
2022-10-03T06:40:42.154Z,81.00
2022-10-03T06:43:42.606Z,81.10
2022-10-03T06:46:30.605Z,81.20
2022-10-03T06:49:34.076Z,81.10
2022-10-03T06:52:31.541Z,81.10
2022-10-03T06:55:38.222Z,81.10
2022-10-03T06:58:51.200Z,81.00
2022-10-03T07:01:57.442Z,81.00
2022-10-03T07:05:01.711Z,80.70
2022-10-03T07:07:56.439Z,80.90
2022-10-03T07:10:41.751Z,80.90
2022-10-03T07:13:35.622Z,80.80
2022-10-03T07:16:36.364Z,80.60
2022-10-03T07:19:36.756Z,80.50
2022-10-03T07:23:08.296Z,80.00
2022-10-03T07:26:18.392Z,79.80
2022-10-03T07:29:27.626Z,79.90
2022-10-03T07:32:29.246Z,79.70
2022-10-03T07:35:55.015Z,79.80
2022-10-03T07:39:03.855Z,79.60
2022-10-03T07:41:48.243Z,79.50
2022-10-03T07:44:35.940Z,79.20
2022-10-03T07:47:59.576Z,79.10
2022-10-03T07:51:01.182Z,78.70
2022-10-03T07:54:14.210Z,78.30
2022-10-03T07:57:38.198Z,78.70
2022-10-03T08:00:16.961Z,76.90
2022-10-03T08:03:29.931Z,77.20
2022-10-03T08:06:14.347Z,76.80
2022-10-03T08:09:34.979Z,76.70
2022-10-03T08:12:35.141Z,76.60
2022-10-03T08:15:53.259Z,76.00
2022-10-03T08:18:33.129Z,75.90
2022-10-03T08:21:03.338Z,75.90
2022-10-03T08:24:12.078Z,76.50
2022-10-03T08:27:18.239Z,75.00
2022-10-03T08:30:39.939Z,75.00
2022-10-03T08:34:09.204Z,74.10
2022-10-03T08:37:30.067Z,75.10
2022-10-03T08:40:36.656Z,73.80
2022-10-03T08:43:56.696Z,74.00
2022-10-03T08:47:02.484Z,74.00
2022-10-03T08:50:09.759Z,73.00
2022-10-03T08:53:07.582Z,73.30
2022-10-03T08:55:48.389Z,72.90
2022-10-03T08:59:00.345Z,72.80
2022-10-03T09:01:58.005Z,72.10
2022-10-03T09:05:32.420Z,72.70
2022-10-03T09:08:50.410Z,72.50
2022-10-03T09:12:06.133Z,71.60
2022-10-03T09:15:12.149Z,72.00
2022-10-03T09:18:05.288Z,72.40
2022-10-03T09:21:28.640Z,71.60
2022-10-03T09:24:24.819Z,70.00
2022-10-03T09:27:36.044Z,71.30
2022-10-03T09:30:14.516Z,71.00
2022-10-03T09:33:32.397Z,70.50
2022-10-03T09:36:08.233Z,70.20
2022-10-03T09:38:58.225Z,69.80
2022-10-03T09:41:41.815Z,70.00
2022-10-03T09:44:48.434Z,70.40
2022-10-03T09:48:02.513Z,69.20
2022-10-03T09:51:21.697Z,69.20
2022-10-03T09:54:22.635Z,69.00
2022-10-03T09:57:25.016Z,68.90
2022-10-03T10:00:19.225Z,69.50
2022-10-03T10:03:13.182Z,69.30
2022-10-03T10:06:12.036Z,69.70
2022-10-03T10:09:12.636Z,68.60
2022-10-03T10:12:29.383Z,68.70
2022-10-03T10:15:18.861Z,67.80
2022-10-03T10:18:39.967Z,67.70
2022-10-03T10:22:05.053Z,67.40
2022-10-03T10:25:28.087Z,66.40
2022-10-03T10:28:49.861Z,66.80
2022-10-03T10:32:21.395Z,66.60
2022-10-03T10:35:28.916Z,66.30
2022-10-03T10:38:34.715Z,66.20
2022-10-03T10:42:25.397Z,66.40
2022-10-03T10:45:39.240Z,66.10
2022-10-03T10:49:03.911Z,66.80
2022-10-03T10:52:26.473Z,66.40
2022-10-03T10:55:47.534Z,66.70
2022-10-03T10:59:03.001Z,66.90
2022-10-03T11:02:23.894Z,67.50
2022-10-03T11:05:42.485Z,65.60
2022-10-03T11:08:46.113Z,65.40
2022-10-03T11:12:14.075Z,65.80
2022-10-03T11:15:19.910Z,65.80
2022-10-03T11:19:07.092Z,66.30
2022-10-03T11:22:16.002Z,66.00
2022-10-03T11:25:16.675Z,66.50
2022-10-03T11:28:19.304Z,66.00
2022-10-03T11:31:22.978Z,65.40
2022-10-03T11:34:34.773Z,66.00
2022-10-03T11:37:13.400Z,65.60
2022-10-03T11:40:02.538Z,65.90
2022-10-03T11:43:03.866Z,65.30
2022-10-03T11:45:37.251Z,65.70
2022-10-03T11:48:42.726Z,66.20
2022-10-03T11:51:18.652Z,65.80
2022-10-03T11:54:13.072Z,66.00
2022-10-03T11:56:54.489Z,65.70
2022-10-03T11:59:47.383Z,66.10
2022-10-03T12:02:39.350Z,66.20
2022-10-03T12:05:41.563Z,65.80
2022-10-03T12:08:48.635Z,65.90
2022-10-03T12:11:27.525Z,66.40
2022-10-03T12:14:11.419Z,66.10
2022-10-03T12:17:15.961Z,66.30
2022-10-03T12:20:17.672Z,66.30
2022-10-03T12:22:53.193Z,66.40
2022-10-03T12:25:37.375Z,66.60
2022-10-03T12:28:26.811Z,66.70
2022-10-03T12:31:02.499Z,66.70
2022-10-03T12:34:19.865Z,67.20
2022-10-03T12:37:36.378Z,67.40
2022-10-03T12:40:17.303Z,67.70
2022-10-03T12:43:24.484Z,67.60
2022-10-03T12:46:01.866Z,67.80
2022-10-03T12:48:49.886Z,68.20
2022-10-03T12:52:09.235Z,68.40
2022-10-03T12:54:49.499Z,68.20
2022-10-03T12:58:06.552Z,68.20
2022-10-03T13:00:57.541Z,68.20
2022-10-03T13:03:57.576Z,68.30
2022-10-03T13:07:05.124Z,67.40
2022-10-03T13:10:11.906Z,67.40
2022-10-03T13:13:16.089Z,66.70
2022-10-03T13:16:04.497Z,66.90
2022-10-03T13:18:56.034Z,67.20
2022-10-03T13:21:52.790Z,66.80
2022-10-03T13:24:43.985Z,66.90
2022-10-03T13:27:29.220Z,67.00
2022-10-03T13:30:24.551Z,66.20
2022-10-03T13:33:03.130Z,65.60
2022-10-03T13:35:59.654Z,64.90
2022-10-03T13:39:16.041Z,64.50
2022-10-03T13:42:14.257Z,64.00
2022-10-03T13:44:54.522Z,64.00
2022-10-03T13:47:53.895Z,64.00
2022-10-03T13:50:24.620Z,63.70
2022-10-03T13:53:13.434Z,63.70
2022-10-03T13:55:58.590Z,63.40
2022-10-03T13:58:58.746Z,63.30
2022-10-03T14:01:45.463Z,62.70
2022-10-03T14:04:35.606Z,62.50
2022-10-03T14:07:19.553Z,62.00
2022-10-03T14:10:28.752Z,61.90
2022-10-03T14:13:23.657Z,62.00
2022-10-03T14:16:06.551Z,62.60
2022-10-03T14:18:56.851Z,62.70
2022-10-03T14:21:49.725Z,63.10
2022-10-03T14:24:37.404Z,63.00
2022-10-03T14:27:40.221Z,62.80
2022-10-03T14:30:15.339Z,62.60
2022-10-03T14:33:14.390Z,63.00
2022-10-03T14:35:55.028Z,62.80
2022-10-03T14:39:02.359Z,63.30
2022-10-03T14:41:45.207Z,62.70
2022-10-03T14:44:37.863Z,63.20
2022-10-03T14:47:15.960Z,63.60
2022-10-03T14:49:59.284Z,63.40
2022-10-03T14:53:07.578Z,63.30
2022-10-03T14:55:52.679Z,63.40
2022-10-03T14:58:52.198Z,63.10
2022-10-03T15:01:26.093Z,62.80
2022-10-03T15:04:03.744Z,63.10
2022-10-03T15:06:55.876Z,62.20
2022-10-03T15:09:46.823Z,62.50
2022-10-03T15:12:27.002Z,62.50
2022-10-03T15:15:12.148Z,62.50
2022-10-03T15:18:03.976Z,62.60
2022-10-03T15:20:41.853Z,62.20
2022-10-03T15:23:26.039Z,62.40
2022-10-03T15:25:55.119Z,61.90
2022-10-03T15:28:30.649Z,61.60
2022-10-03T15:31:12.513Z,62.30
2022-10-03T15:33:40.816Z,62.60
2022-10-03T15:36:26.787Z,62.70
2022-10-03T15:39:00.953Z,62.40
2022-10-03T15:41:51.141Z,62.70
2022-10-03T15:44:39.210Z,62.30
2022-10-03T15:47:13.988Z,62.30
2022-10-03T15:50:33.591Z,62.50
2022-10-03T15:53:36.398Z,62.20
2022-10-03T15:56:15.403Z,62.10
2022-10-03T15:58:50.025Z,62.50
2022-10-03T16:01:25.096Z,62.60
2022-10-03T16:04:04.586Z,62.50
2022-10-03T16:06:49.462Z,62.50
2022-10-03T16:09:22.035Z,62.80
2022-10-03T16:11:58.794Z,62.70
2022-10-03T16:14:59.957Z,62.40
2022-10-03T16:17:51.093Z,62.50
2022-10-03T16:20:45.632Z,62.80
2022-10-03T16:23:26.719Z,63.00
2022-10-03T16:26:03.730Z,63.10
2022-10-03T16:28:50.883Z,63.30
2022-10-03T16:31:29.744Z,63.30
2022-10-03T16:34:03.666Z,63.30
2022-10-03T16:36:41.185Z,63.40
2022-10-03T16:39:33.794Z,64.00
2022-10-03T16:42:11.953Z,63.70
2022-10-03T16:44:56.125Z,63.70
2022-10-03T16:47:34.191Z,63.90
2022-10-03T16:50:20.698Z,64.00
2022-10-03T16:52:53.035Z,64.20
2022-10-03T16:55:39.155Z,64.40
2022-10-03T16:58:08.851Z,64.50
2022-10-03T17:01:09.172Z,64.50
2022-10-03T17:03:53.301Z,64.80
2022-10-03T17:06:36.041Z,64.80
2022-10-03T17:09:14.730Z,64.90
2022-10-03T17:11:48.207Z,64.80
2022-10-03T17:14:20.599Z,65.00
2022-10-03T17:17:03.028Z,65.00
2022-10-03T17:19:42.863Z,64.80
2022-10-03T17:22:18.153Z,64.80
2022-10-03T17:25:01.139Z,64.80
2022-10-03T17:27:40.542Z,64.90
2022-10-03T17:30:33.221Z,64.80
2022-10-03T17:33:18.500Z,64.80
2022-10-03T17:36:43.313Z,64.80
2022-10-03T17:39:34.478Z,64.90
2022-10-03T17:42:41.246Z,65.00
2022-10-03T17:45:47.781Z,65.10
2022-10-03T17:48:52.746Z,65.10
2022-10-03T17:51:35.167Z,65.30
2022-10-03T17:54:11.300Z,65.40
2022-10-03T17:56:49.316Z,65.50
2022-10-03T17:59:30.786Z,65.70
2022-10-03T18:02:13.206Z,65.90
2022-10-03T18:04:46.103Z,66.10
2022-10-03T18:07:19.890Z,66.20
2022-10-03T18:09:54.634Z,66.60
2022-10-03T18:12:42.217Z,66.70
2022-10-03T18:15:37.446Z,66.70
2022-10-03T18:18:29.752Z,67.10
2022-10-03T18:21:06.181Z,67.60
2022-10-03T18:24:24.966Z,67.30
2022-10-03T18:27:39.957Z,67.50
2022-10-03T18:30:16.938Z,67.60
2022-10-03T18:32:45.592Z,67.80
2022-10-03T18:35:17.937Z,67.00
2022-10-03T18:37:44.575Z,67.60
2022-10-03T18:40:29.548Z,67.90
2022-10-03T18:42:58.010Z,68.30
2022-10-03T18:45:43.131Z,68.80
2022-10-03T18:48:21.035Z,68.90
2022-10-03T18:51:13.984Z,68.40
2022-10-03T18:54:07.494Z,68.80
2022-10-03T18:56:36.676Z,69.00
2022-10-03T18:59:33.960Z,69.00
2022-10-03T19:02:03.509Z,70.10
2022-10-03T19:04:45.600Z,69.60
2022-10-03T19:07:22.232Z,70.50
2022-10-03T19:10:21.950Z,70.80
2022-10-03T19:13:23.226Z,71.80
2022-10-03T19:16:27.519Z,72.30
2022-10-03T19:19:02.129Z,72.50
2022-10-03T19:21:35.512Z,72.70
2022-10-03T19:24:14.937Z,72.40
2022-10-03T19:26:54.283Z,72.70
2022-10-03T19:29:24.636Z,73.20
2022-10-03T19:31:53.315Z,73.00
2022-10-03T19:34:34.362Z,73.40
2022-10-03T19:37:01.781Z,73.80
2022-10-03T19:39:32.485Z,73.40
2022-10-03T19:42:28.337Z,73.90
2022-10-03T19:44:58.148Z,74.80
2022-10-03T19:47:38.070Z,73.90
2022-10-03T19:50:28.217Z,74.60
2022-10-03T19:52:55.874Z,74.60
2022-10-03T19:55:37.206Z,74.10
2022-10-03T19:58:08.902Z,75.40
2022-10-03T20:00:48.399Z,74.60
2022-10-03T20:03:29.145Z,75.00
2022-10-03T20:06:26.524Z,74.90
2022-10-03T20:09:01.667Z,76.30
2022-10-03T20:11:51.792Z,75.80
2022-10-03T20:14:27.222Z,76.30
2022-10-03T20:17:13.949Z,76.10
2022-10-03T20:19:54.652Z,76.60
2022-10-03T20:22:27.370Z,76.60
2022-10-03T20:24:55.378Z,76.30
2022-10-03T20:27:45.945Z,76.20
2022-10-03T20:30:24.023Z,77.50
2022-10-03T20:32:53.875Z,76.70
2022-10-03T20:35:29.630Z,76.70
2022-10-03T20:38:40.464Z,77.30
2022-10-03T20:41:19.737Z,77.20
2022-10-03T20:44:27.851Z,77.80
2022-10-03T20:47:10.098Z,77.70
2022-10-03T20:49:52.876Z,77.70
2022-10-03T20:52:25.865Z,77.60
2022-10-03T20:54:59.666Z,77.60
2022-10-03T20:57:37.287Z,77.40
2022-10-03T21:00:25.413Z,78.10
2022-10-03T21:03:03.884Z,77.40
2022-10-03T21:05:43.391Z,78.10
2022-10-03T21:08:40.325Z,78.30
2022-10-03T21:11:39.472Z,78.40
2022-10-03T21:14:25.939Z,78.40
2022-10-03T21:16:54.859Z,78.70
2022-10-03T21:19:34.076Z,77.80
2022-10-03T21:22:07.294Z,78.80
2022-10-03T21:24:47.649Z,78.10
2022-10-03T21:27:18.306Z,78.90
2022-10-03T21:29:58.764Z,78.70
2022-10-03T21:33:17.480Z,79.30
2022-10-03T21:35:44.929Z,79.50
2022-10-03T21:38:27.406Z,78.60
2022-10-03T21:41:17.231Z,78.80
2022-10-03T21:44:01.798Z,79.20
2022-10-03T21:46:42.434Z,78.80
2022-10-03T21:49:40.265Z,79.60
2022-10-03T21:52:44.624Z,79.70
2022-10-03T21:55:52.571Z,80.10
2022-10-03T21:58:51.232Z,80.30
2022-10-03T22:01:38.470Z,80.10
2022-10-03T22:04:33.998Z,80.40
2022-10-03T22:07:14.957Z,80.40
2022-10-03T22:09:53.725Z,79.40
2022-10-03T22:12:21.713Z,80.30
2022-10-03T22:15:08.540Z,79.80
2022-10-03T22:18:05.240Z,80.50
2022-10-03T22:20:34.850Z,80.80
2022-10-03T22:23:44.261Z,80.10
2022-10-03T22:26:30.419Z,81.70
2022-10-03T22:29:22.984Z,80.70
2022-10-03T22:32:31.203Z,80.60
2022-10-03T22:35:47.627Z,81.20
2022-10-03T22:38:17.076Z,81.10
2022-10-03T22:40:47.221Z,81.00
2022-10-03T22:43:15.488Z,80.90
2022-10-03T22:45:50.068Z,80.70
2022-10-03T22:48:27.953Z,81.00
2022-10-03T22:50:56.296Z,81.10
2022-10-03T22:53:31.122Z,80.90
2022-10-03T22:56:00.163Z,81.20
2022-10-03T22:58:30.475Z,81.10
2022-10-03T23:01:00.939Z,81.20
2022-10-03T23:03:34.439Z,81.30
2022-10-03T23:06:37.632Z,81.50
2022-10-03T23:09:31.639Z,81.70
2022-10-03T23:11:58.852Z,81.90
2022-10-03T23:14:37.586Z,81.20
2022-10-03T23:18:07.156Z,81.50
2022-10-03T23:21:08.467Z,82.10
2022-10-03T23:23:50.546Z,82.00
2022-10-03T23:26:43.605Z,81.20
2022-10-03T23:29:16.770Z,81.90
2022-10-03T23:32:09.460Z,81.70
2022-10-03T23:34:38.870Z,82.20
2022-10-03T23:37:11.540Z,81.20
2022-10-03T23:39:56.067Z,81.80
2022-10-03T23:42:47.658Z,81.60
2022-10-03T23:45:20.267Z,81.80
2022-10-03T23:48:10.202Z,82.20
2022-10-03T23:50:49.748Z,82.20
2022-10-03T23:53:46.805Z,81.80
2022-10-03T23:56:22.816Z,81.80
2022-10-03T23:59:14.682Z,81.70
